createdAt,value
2018-06-21T00:01:35.286Z,9.43
2018-06-21T00:04:14.790Z,8.33
2018-06-21T00:06:55.750Z,11.00
2018-06-21T00:09:34.442Z,7.83
2018-06-21T00:12:07.154Z,9.03
2018-06-21T00:14:46.913Z,8.90
2018-06-21T00:17:26.767Z,9.08
2018-06-21T00:23:36.044Z,10.32
2018-06-21T00:26:10.070Z,11.50
2018-06-21T00:28:43.552Z,9.27
2018-06-21T00:37:41.053Z,12.42
2018-06-21T00:40:14.463Z,11.00
2018-06-21T00:42:50.177Z,8.90
2018-06-21T00:45:29.727Z,9.53
2018-06-21T00:48:02.048Z,10.60
2018-06-21T00:53:51.262Z,10.57
2018-06-21T00:56:41.831Z,11.93
2018-06-21T00:59:15.723Z,10.17
2018-06-21T01:02:26.381Z,10.90
2018-06-21T01:09:53.617Z,9.05
2018-06-21T01:12:28.779Z,10.65
2018-06-21T01:15:05.578Z,9.15
2018-06-21T01:17:41.376Z,9.03
2018-06-21T01:20:15.010Z,9.20
2018-06-21T01:22:50.532Z,14.18
2018-06-21T01:27:12.285Z,9.35
2018-06-21T01:29:54.376Z,9.70
2018-06-21T01:32:35.636Z,9.23
2018-06-21T01:35:13.099Z,12.40
2018-06-21T01:37:53.991Z,10.93
2018-06-21T01:40:29.175Z,9.70
2018-06-21T01:43:08.486Z,9.47
2018-06-21T01:45:46.024Z,10.70
2018-06-21T01:48:21.873Z,10.30
2018-06-21T01:51:05.852Z,7.87
2018-06-21T01:53:49.450Z,8.37
2018-06-21T01:56:22.137Z,8.60
2018-06-21T01:59:01.630Z,9.70
2018-06-21T02:11:06.976Z,11.50
2018-06-21T02:13:37.356Z,10.73
2018-06-21T02:16:10.135Z,12.88
2018-06-21T02:18:39.296Z,9.53
2018-06-21T02:21:08.672Z,11.85
2018-06-21T02:23:37.621Z,9.27
2018-06-21T02:26:06.570Z,9.00
2018-06-21T02:28:35.636Z,10.60
2018-06-21T02:31:04.969Z,8.60
2018-06-21T02:33:34.124Z,10.30
2018-06-21T02:36:03.270Z,9.07
2018-06-21T02:38:32.521Z,12.30
2018-06-21T02:41:01.959Z,11.08
2018-06-21T02:43:31.038Z,11.28
2018-06-21T02:46:00.176Z,12.57
2018-06-21T02:48:29.233Z,12.43
2018-06-21T02:50:58.670Z,10.13
2018-06-21T02:53:28.906Z,9.78
2018-06-21T02:55:59.256Z,14.20
2018-06-21T02:58:29.262Z,11.55
2018-06-21T03:00:59.143Z,10.93
2018-06-21T03:03:29.019Z,9.00
2018-06-21T03:05:58.255Z,10.83
2018-06-21T03:08:27.833Z,9.17
2018-06-21T03:10:56.762Z,13.20
2018-06-21T03:13:25.912Z,9.80
2018-06-21T03:15:54.860Z,8.98
2018-06-21T03:18:24.145Z,10.50
2018-06-21T03:20:53.364Z,8.73
2018-06-21T03:23:22.364Z,7.77
2018-06-21T03:25:51.808Z,10.13
2018-06-21T03:28:21.228Z,7.42
2018-06-21T03:30:50.661Z,10.00
2018-06-21T03:33:19.767Z,9.37
2018-06-21T03:35:48.870Z,13.20
2018-06-21T03:38:18.699Z,10.23
2018-06-21T03:40:48.296Z,10.10
2018-06-21T03:43:17.777Z,10.67
2018-06-21T03:45:46.946Z,10.90
2018-06-21T03:48:16.367Z,13.47
2018-06-21T03:50:45.216Z,11.43
2018-06-21T03:53:14.552Z,15.27
2018-06-21T03:55:43.825Z,11.97
2018-06-21T03:58:13.395Z,10.57
2018-06-21T04:00:43.145Z,13.77
2018-06-21T04:03:13.254Z,10.60
2018-06-21T04:05:42.148Z,13.10
2018-06-21T04:08:12.149Z,10.20
2018-06-21T04:10:42.361Z,12.28
2018-06-21T04:13:18.962Z,12.17
2018-06-21T04:15:49.919Z,10.00
2018-06-21T04:18:35.816Z,10.40
2018-06-21T04:21:06.875Z,10.67
2018-06-21T04:23:50.584Z,10.83
2018-06-21T04:26:20.933Z,11.10
2018-06-21T04:28:51.097Z,13.55
2018-06-21T08:06:56.931Z,4.80
2018-06-21T08:09:25.411Z,5.53
2018-06-21T08:11:54.243Z,4.27
2018-06-21T08:14:22.808Z,3.27
2018-06-21T08:16:51.325Z,5.90
2018-06-21T08:19:20.625Z,3.10
2018-06-21T08:21:49.153Z,3.43
2018-06-21T08:24:17.654Z,2.95
2018-06-21T08:26:46.142Z,2.93
2018-06-21T08:29:14.797Z,3.30
2018-06-21T08:31:43.906Z,2.90
2018-06-21T08:34:12.508Z,3.77
2018-06-21T08:36:41.810Z,3.20
2018-06-21T08:39:10.505Z,5.50
2018-06-21T08:41:39.100Z,3.80
2018-06-21T08:44:07.569Z,2.98
2018-06-21T08:46:36.059Z,3.03
2018-06-21T08:49:04.608Z,2.70
2018-06-21T08:51:33.190Z,3.33
2018-06-21T08:54:01.741Z,4.00
2018-06-21T08:56:30.250Z,9.23
2018-06-21T08:58:59.726Z,3.33
2018-06-21T09:01:28.844Z,3.80
2018-06-21T09:03:57.995Z,3.17
2018-06-21T09:06:26.483Z,2.93
2018-06-21T09:08:55.028Z,2.92
2018-06-21T09:11:23.605Z,3.00
2018-06-21T09:13:52.181Z,2.80
2018-06-21T09:16:20.656Z,4.17
2018-06-21T09:18:49.210Z,3.00
2018-06-21T09:21:17.898Z,3.52
2018-06-21T09:46:37.186Z,5.60
2018-06-21T09:49:05.716Z,10.03
2018-06-21T09:51:34.173Z,10.10
2018-06-21T09:54:02.680Z,7.12
2018-06-21T09:56:31.136Z,14.83
2018-06-21T09:58:59.626Z,6.95
2018-06-21T10:01:29.710Z,8.23
2018-06-21T10:03:58.327Z,7.37
2018-06-21T10:06:26.904Z,7.17
2018-06-21T13:40:56.601Z,5.30
2018-06-21T13:43:50.575Z,1.83
2018-06-21T13:46:29.022Z,3.15
2018-06-21T13:49:08.810Z,3.30
2018-06-21T13:51:57.160Z,1.80
2018-06-21T14:01:05.366Z,2.62
2018-06-21T14:04:00.538Z,3.93
2018-06-21T14:06:36.125Z,4.77
2018-06-21T14:09:26.915Z,3.83
2018-06-21T14:12:11.463Z,7.55
2018-06-21T14:14:56.495Z,7.53
2018-06-21T14:17:42.185Z,3.90
2018-06-21T14:20:24.053Z,6.70
2018-06-21T14:22:52.871Z,4.92
2018-06-21T14:25:25.002Z,4.87
2018-06-21T14:28:14.469Z,3.37
2018-06-21T14:31:03.560Z,9.80
2018-06-21T14:33:34.154Z,3.77
2018-06-21T14:36:18.055Z,4.73
2018-06-21T14:39:01.616Z,2.77
2018-06-21T14:44:37.058Z,3.64
2018-06-21T14:47:16.564Z,9.00
2018-06-21T14:49:51.531Z,12.73
2018-06-21T14:52:47.643Z,9.37
2018-06-21T14:55:25.658Z,2.13
2018-06-21T14:57:59.976Z,4.43
2018-06-21T15:00:41.783Z,4.73
2018-06-21T15:03:16.964Z,5.97
2018-06-21T15:05:59.372Z,2.30
2018-06-21T15:08:28.439Z,5.37
2018-06-21T15:10:57.394Z,3.20
2018-06-21T15:13:26.648Z,3.80
2018-06-21T15:15:55.979Z,4.53
2018-06-21T15:18:45.925Z,3.93
2018-06-21T15:21:23.159Z,5.17
2018-06-21T15:24:48.428Z,6.23
2018-06-21T15:27:51.664Z,3.20
2018-06-21T15:34:39.722Z,3.90
2018-06-21T15:37:32.943Z,3.20
2018-06-21T15:45:48.394Z,5.40
2018-06-21T15:48:28.882Z,6.53
2018-06-21T15:53:55.373Z,3.70
2018-06-21T15:56:39.637Z,4.63
2018-06-21T15:59:09.925Z,4.63
2018-06-21T16:01:46.417Z,7.80
2018-06-21T16:04:17.130Z,5.67
2018-06-21T16:06:50.478Z,1.60
2018-06-21T16:09:33.031Z,2.60
2018-06-21T16:12:28.576Z,4.15
2018-06-21T16:21:10.150Z,6.80
2018-06-21T16:23:43.343Z,3.55
2018-06-21T16:26:37.243Z,5.78
2018-06-21T16:31:57.694Z,5.90
2018-06-21T16:34:34.874Z,4.77
2018-06-21T16:52:08.233Z,5.97
2018-06-21T16:55:22.165Z,7.17
2018-06-21T16:57:54.827Z,13.59
2018-06-21T17:00:34.600Z,4.04
2018-06-21T17:13:46.388Z,4.83
2018-06-21T17:16:36.798Z,2.53
2018-06-21T17:19:42.150Z,1.87
2018-06-21T17:30:19.952Z,6.70
2018-06-21T17:44:30.205Z,3.03
2018-06-21T17:46:59.947Z,5.73
2018-06-21T17:49:28.612Z,5.50
2018-06-21T17:51:57.265Z,3.58
2018-06-21T17:54:26.017Z,2.90
2018-06-21T17:56:54.564Z,5.33
2018-06-21T17:59:23.076Z,3.95
2018-06-21T18:01:51.635Z,2.87
2018-06-21T18:04:21.144Z,4.00
2018-06-21T18:06:56.083Z,5.80
2018-06-21T18:09:24.886Z,3.25
2018-06-21T18:11:53.401Z,6.10
2018-06-21T18:14:22.001Z,5.30
2018-06-21T18:16:50.736Z,5.07
2018-06-21T18:19:19.344Z,5.75
2018-06-21T18:21:47.869Z,4.97
2018-06-21T18:24:16.472Z,2.73
2018-06-21T18:26:45.310Z,5.17
2018-06-21T18:29:14.074Z,4.63
2018-06-21T18:31:42.700Z,2.93
2018-06-21T18:34:11.281Z,3.83
2018-06-21T18:36:39.919Z,8.03
2018-06-21T18:39:09.731Z,2.50
2018-06-21T18:41:39.369Z,1.97
2018-06-21T18:44:08.076Z,4.87
2018-06-21T18:46:36.722Z,5.83
2018-06-21T18:49:05.888Z,7.00
2018-06-21T18:51:34.498Z,10.03
2018-06-21T18:54:03.284Z,4.10
2018-06-21T18:56:33.067Z,11.20
2018-06-21T18:59:01.580Z,2.33
2018-06-21T19:01:30.240Z,7.70
2018-06-21T19:03:59.376Z,6.03
2018-06-21T19:06:33.026Z,3.90
2018-06-21T19:09:06.805Z,6.50
2018-06-21T19:11:40.719Z,8.87
2018-06-21T19:14:09.349Z,5.00
2018-06-21T19:16:37.985Z,2.83
2018-06-21T19:19:06.643Z,6.87
2018-06-21T19:21:35.236Z,4.80
2018-06-21T19:24:03.857Z,5.33
2018-06-21T19:26:32.398Z,7.75
2018-06-21T19:29:01.448Z,5.10
2018-06-21T19:31:30.169Z,4.37
2018-06-21T19:33:59.214Z,5.43
2018-06-21T19:36:27.841Z,4.53
2018-06-21T19:39:04.422Z,7.03
2018-06-21T19:41:33.617Z,3.80
2018-06-21T19:44:03.907Z,8.87
2018-06-21T19:46:32.671Z,4.83
2018-06-21T19:49:01.968Z,1.93
2018-06-21T19:51:30.921Z,4.60
